Fleetwood, Pennsylvania
Current Conditions -  °F | °C
As of 9:54 PM on Sunday 23 Nov 2014 (Local Time) from KRDG Reporting Station
Overcast Overcast  
Wind Chill: 53°   Ceiling: 4400
Heat Index: 53°   Visibility: 10mi
Dew Point: 39°   Wind: 10mph
Humidity: 59%   Direction: 140°SE
Pressure: 29.97"   Gusts: NA
Location:  40.45°N, 75.82°W
Report Text: KRDG 240254Z AUTO 14009KT 10SM OVC044 12/04 A2997 RMK AO2 SLP154 T01170039 58035
Loading
Personal Weather Stations






























Interactive Weather Map New forecast layout! Learn more

10-Day Weather Forecast

Advertisements
Track Severe Weather on mobile